createdAt,value
2022-11-04T00:01:59.399Z,100.00
2022-11-04T00:04:27.203Z,100.00
2022-11-04T00:06:54.184Z,100.00
2022-11-04T00:09:22.914Z,100.00
2022-11-04T00:12:08.331Z,100.00
2022-11-04T00:14:34.898Z,100.00
2022-11-04T00:17:21.283Z,100.00
2022-11-04T00:20:07.847Z,100.00
2022-11-04T00:22:53.443Z,100.00
2022-11-04T00:25:37.980Z,100.00
2022-11-04T00:28:25.442Z,100.00
2022-11-04T00:30:56.792Z,100.00
2022-11-04T00:33:25.994Z,100.00
2022-11-04T00:35:54.954Z,100.00
2022-11-04T00:38:21.519Z,100.00
2022-11-04T00:40:47.313Z,100.00
2022-11-04T00:43:13.158Z,100.00
2022-11-04T00:45:42.615Z,100.00
2022-11-04T00:48:08.790Z,100.00
2022-11-04T00:50:35.006Z,100.00
2022-11-04T00:53:01.937Z,100.00
2022-11-04T00:55:27.919Z,100.00
2022-11-04T00:57:54.318Z,100.00
2022-11-04T01:00:20.279Z,100.00
2022-11-04T01:02:46.788Z,100.00
2022-11-04T01:05:12.780Z,100.00
2022-11-04T01:07:43.552Z,100.00
2022-11-04T01:10:10.277Z,100.00
2022-11-04T01:12:36.103Z,100.00
2022-11-04T01:15:01.937Z,100.00
2022-11-04T01:17:28.067Z,100.00
2022-11-04T01:19:53.825Z,100.00
2022-11-04T01:22:19.623Z,100.00
2022-11-04T01:24:45.389Z,100.00
2022-11-04T01:27:11.180Z,100.00
2022-11-04T01:29:37.154Z,100.00
2022-11-04T01:32:02.923Z,100.00
2022-11-04T01:34:28.688Z,100.00
2022-11-04T01:36:54.566Z,100.00
2022-11-04T01:39:20.403Z,100.00
2022-11-04T01:41:46.179Z,100.00
2022-11-04T01:44:49.870Z,100.00
2022-11-04T01:47:26.484Z,100.00
2022-11-04T01:50:08.134Z,100.00
2022-11-04T01:52:40.770Z,100.00
2022-11-04T01:55:12.195Z,100.00
2022-11-04T01:57:41.613Z,100.00
2022-11-04T02:00:08.973Z,100.00
2022-11-04T02:02:53.404Z,100.00
2022-11-04T02:05:20.429Z,100.00
2022-11-04T02:07:50.729Z,100.00
2022-11-04T02:10:18.422Z,100.00
2022-11-04T02:12:49.938Z,100.00
2022-11-04T02:15:37.378Z,100.00
2022-11-04T02:18:13.486Z,100.00
2022-11-04T02:20:58.298Z,100.00
2022-11-04T02:23:50.448Z,100.00
2022-11-04T02:26:44.409Z,100.00
2022-11-04T02:29:38.828Z,100.00
2022-11-04T02:32:24.879Z,100.00
2022-11-04T02:34:59.124Z,100.00
2022-11-04T02:37:32.777Z,100.00
2022-11-04T02:40:05.346Z,100.00
2022-11-04T02:42:48.211Z,100.00
2022-11-04T02:45:26.753Z,100.00
2022-11-04T02:48:01.093Z,100.00
2022-11-04T02:50:34.916Z,100.00
2022-11-04T02:53:14.377Z,100.00
2022-11-04T02:55:45.758Z,100.00
2022-11-04T02:58:21.829Z,100.00
2022-11-04T03:00:51.643Z,100.00
2022-11-04T03:03:24.093Z,100.00
2022-11-04T03:05:54.017Z,100.00
2022-11-04T03:08:26.575Z,100.00
2022-11-04T03:11:04.101Z,100.00
2022-11-04T03:13:46.422Z,100.00
2022-11-04T03:16:44.180Z,100.00
2022-11-04T03:19:13.226Z,100.00
2022-11-04T03:21:45.102Z,100.00
2022-11-04T03:24:10.997Z,100.00
2022-11-04T03:26:42.959Z,100.00
2022-11-04T03:29:21.498Z,100.00
2022-11-04T03:32:04.379Z,100.00
2022-11-04T03:34:31.247Z,100.00
2022-11-04T03:36:58.207Z,100.00
2022-11-04T03:39:24.621Z,100.00
2022-11-04T03:41:56.293Z,100.00
2022-11-04T03:44:23.623Z,100.00
2022-11-04T03:46:51.892Z,100.00
2022-11-04T03:49:18.857Z,100.00
2022-11-04T03:51:44.593Z,100.00
2022-11-04T03:54:10.539Z,100.00
2022-11-04T03:56:55.023Z,100.00
2022-11-04T03:59:26.892Z,100.00
2022-11-04T04:01:59.902Z,100.00
2022-11-04T04:04:31.853Z,100.00
2022-11-04T04:07:03.628Z,100.00
2022-11-04T04:09:43.834Z,100.00
2022-11-04T04:12:35.577Z,100.00
2022-11-04T04:15:14.714Z,100.00
2022-11-04T04:17:50.783Z,100.00
2022-11-04T04:20:23.669Z,100.00
2022-11-04T04:22:56.259Z,100.00
2022-11-04T04:25:45.123Z,100.00
2022-11-04T04:28:14.868Z,100.00
2022-11-04T04:30:43.115Z,100.00
2022-11-04T04:33:12.908Z,100.00
2022-11-04T04:35:44.012Z,100.00
2022-11-04T04:38:37.984Z,100.00
2022-11-04T04:41:34.582Z,100.00
2022-11-04T04:44:20.464Z,100.00
2022-11-04T04:46:50.131Z,100.00
2022-11-04T04:49:15.948Z,100.00
2022-11-04T04:51:45.102Z,100.00
2022-11-04T04:54:11.329Z,100.00
2022-11-04T04:56:37.338Z,100.00
2022-11-04T04:59:03.255Z,100.00
2022-11-04T05:01:29.166Z,100.00
2022-11-04T05:03:55.136Z,100.00
2022-11-04T05:06:20.896Z,100.00
2022-11-04T05:08:46.727Z,100.00
2022-11-04T05:11:13.002Z,100.00
2022-11-04T05:13:38.806Z,100.00
2022-11-04T05:16:07.490Z,100.00
2022-11-04T05:18:34.057Z,100.00
2022-11-04T05:21:07.778Z,100.00
2022-11-04T05:23:34.131Z,100.00
2022-11-04T05:26:00.047Z,100.00
2022-11-04T05:28:26.132Z,100.00
2022-11-04T05:30:52.114Z,100.00
2022-11-04T05:33:17.842Z,100.00
2022-11-04T05:35:43.675Z,100.00
2022-11-04T05:38:09.464Z,100.00
2022-11-04T05:40:35.216Z,100.00
2022-11-04T05:43:01.011Z,100.00
2022-11-04T05:45:28.375Z,100.00
2022-11-04T05:48:03.170Z,100.00
2022-11-04T05:50:31.208Z,100.00
2022-11-04T05:52:57.936Z,100.00
2022-11-04T05:55:24.417Z,100.00
2022-11-04T05:57:50.237Z,100.00
2022-11-04T06:00:16.571Z,100.00
2022-11-04T06:02:42.435Z,100.00
2022-11-04T06:05:08.998Z,100.00
2022-11-04T06:07:34.853Z,100.00
2022-11-04T06:10:00.976Z,100.00
2022-11-04T06:12:26.831Z,100.00
2022-11-04T06:14:52.738Z,100.00
2022-11-04T06:17:20.693Z,100.00
2022-11-04T06:19:47.452Z,100.00
2022-11-04T06:22:18.427Z,100.00
2022-11-04T06:24:44.479Z,100.00
2022-11-04T06:27:11.242Z,100.00
2022-11-04T06:29:40.953Z,100.00
2022-11-04T06:32:12.934Z,100.00
2022-11-04T06:34:39.550Z,100.00
2022-11-04T06:37:05.420Z,100.00
2022-11-04T06:39:31.450Z,100.00
2022-11-04T06:41:59.667Z,100.00
2022-11-04T06:44:28.223Z,100.00
2022-11-04T06:46:54.017Z,100.00
2022-11-04T06:49:22.335Z,100.00
2022-11-04T06:51:48.908Z,100.00
2022-11-04T06:54:15.762Z,100.00
2022-11-04T06:56:42.274Z,100.00
2022-11-04T06:59:13.214Z,100.00
2022-11-04T07:01:39.085Z,100.00
2022-11-04T07:04:04.910Z,100.00
2022-11-04T07:06:30.829Z,100.00
2022-11-04T07:09:01.370Z,100.00
2022-11-04T07:11:29.831Z,100.00
2022-11-04T07:13:55.767Z,100.00
2022-11-04T07:16:21.568Z,100.00
2022-11-04T07:18:48.626Z,100.00
2022-11-04T07:21:14.749Z,100.00
2022-11-04T07:23:40.543Z,100.00
2022-11-04T07:26:07.885Z,100.00
2022-11-04T07:28:34.470Z,100.00
2022-11-04T07:31:01.789Z,100.00
2022-11-04T07:33:28.592Z,100.00
2022-11-04T07:35:58.183Z,100.00
2022-11-04T07:38:24.663Z,100.00
2022-11-04T07:40:50.500Z,100.00
2022-11-04T07:43:16.381Z,100.00
2022-11-04T07:45:42.396Z,100.00
2022-11-04T07:48:08.806Z,100.00
2022-11-04T07:50:39.521Z,100.00
2022-11-04T07:53:05.919Z,100.00
2022-11-04T07:55:31.957Z,100.00
2022-11-04T07:57:57.774Z,100.00
2022-11-04T08:00:23.642Z,100.00
2022-11-04T08:02:49.899Z,100.00
2022-11-04T08:05:16.179Z,100.00
2022-11-04T08:07:42.006Z,100.00
2022-11-04T08:10:09.343Z,100.00
2022-11-04T08:12:37.304Z,100.00
2022-11-04T08:15:03.608Z,100.00
2022-11-04T08:17:29.868Z,100.00
2022-11-04T08:19:55.685Z,100.00
2022-11-04T08:22:21.492Z,100.00
2022-11-04T08:24:47.299Z,100.00
2022-11-04T08:27:13.609Z,100.00
2022-11-04T08:29:39.541Z,100.00
2022-11-04T08:32:07.242Z,100.00
2022-11-04T08:34:33.772Z,100.00
2022-11-04T08:36:59.611Z,100.00
2022-11-04T08:39:26.299Z,100.00
2022-11-04T08:41:53.444Z,100.00
2022-11-04T08:44:20.137Z,100.00
2022-11-04T08:46:46.433Z,100.00
2022-11-04T08:49:16.266Z,100.00
2022-11-04T08:51:55.425Z,100.00
2022-11-04T08:54:22.667Z,100.00
2022-11-04T08:56:48.713Z,100.00
2022-11-04T08:59:14.504Z,100.00
2022-11-04T09:01:41.612Z,100.00
2022-11-04T09:04:09.674Z,100.00
2022-11-04T09:06:38.454Z,100.00
2022-11-04T09:09:06.747Z,100.00
2022-11-04T09:11:36.698Z,100.00
2022-11-04T09:14:02.656Z,100.00
2022-11-04T09:16:30.113Z,100.00
2022-11-04T09:18:57.543Z,100.00
2022-11-04T09:21:24.633Z,100.00
2022-11-04T09:23:50.548Z,100.00
2022-11-04T09:26:17.507Z,100.00
2022-11-04T09:28:43.559Z,99.32
2022-11-04T09:31:18.313Z,89.97
2022-11-04T09:33:44.763Z,87.45
2022-11-04T09:36:11.777Z,90.54
2022-11-04T09:38:39.131Z,95.32
2022-11-04T09:41:22.390Z,94.42
2022-11-04T09:44:23.436Z,79.33
2022-11-04T09:46:52.358Z,56.03
2022-11-04T09:49:19.051Z,50.79
2022-11-04T09:51:54.143Z,48.63
2022-11-04T09:54:30.566Z,51.99
2022-11-04T09:57:00.921Z,46.67
2022-11-04T09:59:31.247Z,40.28
2022-11-04T10:02:02.907Z,39.32
2022-11-04T10:04:47.170Z,35.91
2022-11-04T10:07:49.385Z,34.29
2022-11-04T10:10:23.304Z,30.35
2022-11-04T10:13:03.015Z,31.79
2022-11-04T10:15:50.736Z,30.58
2022-11-04T10:18:34.687Z,32.95
2022-11-04T10:21:00.557Z,31.32
2022-11-04T10:23:37.706Z,33.94
2022-11-04T10:26:12.243Z,37.93
2022-11-04T10:28:44.077Z,39.38
2022-11-04T10:31:17.989Z,45.90
2022-11-04T10:34:08.098Z,54.69
2022-11-04T10:36:36.171Z,61.58
2022-11-04T10:39:09.219Z,71.65
2022-11-04T10:41:40.028Z,77.91
2022-11-04T10:44:16.067Z,82.82
2022-11-04T10:46:55.126Z,87.11
2022-11-04T10:50:21.748Z,89.63
2022-11-04T10:52:38.066Z,91.55
2022-11-04T10:55:20.014Z,92.23
2022-11-04T10:57:46.018Z,90.77
2022-11-04T11:00:32.717Z,93.26
2022-11-04T11:02:59.053Z,95.24
2022-11-04T11:05:25.203Z,96.22
2022-11-04T11:07:53.835Z,97.47
2022-11-04T11:10:31.915Z,98.52
2022-11-04T11:13:06.158Z,96.89
2022-11-04T11:15:40.548Z,97.34
2022-11-04T11:18:17.776Z,97.31
2022-11-04T11:21:12.331Z,96.46
2022-11-04T11:23:41.426Z,98.98
2022-11-04T11:26:19.372Z,100.00
2022-11-04T11:28:59.644Z,100.00
2022-11-04T11:31:33.974Z,100.00
2022-11-04T11:34:04.376Z,100.00
2022-11-04T11:36:33.354Z,100.00
2022-11-04T11:39:03.337Z,100.00
2022-11-04T11:41:33.144Z,100.00
2022-11-04T11:44:32.082Z,100.00
2022-11-04T11:47:01.339Z,100.00
2022-11-04T11:49:30.672Z,100.00
2022-11-04T11:52:23.468Z,100.00
2022-11-04T11:54:53.912Z,100.00
2022-11-04T11:57:28.739Z,100.00
2022-11-04T12:03:02.573Z,100.00
2022-11-04T12:11:38.552Z,100.00
2022-11-04T12:14:36.458Z,99.46
2022-11-04T12:17:29.998Z,98.04
2022-11-04T12:20:15.248Z,96.18
2022-11-04T12:23:04.574Z,95.96
2022-11-04T12:26:01.575Z,97.57
2022-11-04T12:28:45.698Z,95.68
2022-11-04T12:31:24.277Z,96.78
2022-11-04T12:34:01.957Z,96.37
2022-11-04T12:36:59.202Z,96.14
2022-11-04T12:39:34.517Z,98.07
2022-11-04T12:42:21.454Z,98.20
2022-11-04T12:45:21.252Z,99.67
2022-11-04T12:47:47.548Z,99.18
2022-11-04T12:50:41.850Z,100.00
2022-11-04T12:53:32.075Z,99.63
2022-11-04T12:56:10.771Z,100.00
2022-11-04T12:59:08.033Z,100.00
2022-11-04T13:01:47.884Z,100.00
2022-11-04T13:04:19.476Z,100.00
2022-11-04T13:06:51.625Z,100.00
2022-11-04T13:09:29.589Z,100.00
2022-11-04T13:12:03.079Z,100.00
2022-11-04T13:14:46.456Z,100.00
2022-11-04T13:17:17.740Z,100.00
2022-11-04T13:19:48.707Z,100.00
2022-11-04T13:22:35.731Z,100.00
2022-11-04T13:25:06.698Z,100.00
2022-11-04T13:27:44.346Z,100.00
2022-11-04T13:30:22.718Z,100.00
2022-11-04T13:33:13.536Z,100.00
2022-11-04T13:36:05.211Z,100.00
2022-11-04T13:38:33.661Z,100.00
2022-11-04T13:41:21.357Z,100.00
2022-11-04T13:43:57.399Z,100.00
2022-11-04T13:46:29.328Z,100.00
2022-11-04T13:49:06.111Z,100.00
2022-11-04T13:51:44.507Z,99.78
2022-11-04T13:54:28.248Z,99.29
2022-11-04T13:57:14.928Z,98.38
2022-11-04T13:59:43.490Z,99.50
2022-11-04T14:02:18.547Z,99.71
2022-11-04T14:04:45.410Z,99.93
2022-11-04T14:07:15.260Z,100.00
2022-11-04T14:09:40.986Z,100.00
2022-11-04T14:12:09.735Z,100.00
2022-11-04T14:14:36.962Z,100.00
2022-11-04T14:17:06.579Z,100.00
2022-11-04T14:19:55.030Z,100.00
2022-11-04T14:22:22.033Z,100.00
2022-11-04T14:24:56.696Z,100.00
2022-11-04T14:27:27.122Z,100.00
2022-11-04T14:29:53.773Z,100.00
2022-11-04T14:32:30.230Z,100.00
2022-11-04T14:34:59.267Z,100.00
2022-11-04T14:37:33.684Z,100.00
2022-11-04T14:40:03.017Z,100.00
2022-11-04T14:42:49.701Z,100.00
2022-11-04T14:45:23.536Z,100.00
2022-11-04T14:47:54.372Z,100.00
2022-11-04T14:50:24.351Z,100.00
2022-11-04T14:53:04.411Z,100.00
2022-11-04T14:55:32.080Z,100.00
2022-11-04T14:58:20.978Z,100.00
2022-11-04T15:00:49.719Z,100.00
2022-11-04T15:04:08.843Z,100.00
2022-11-04T15:06:10.190Z,100.00
2022-11-04T15:08:39.654Z,100.00
2022-11-04T15:11:17.150Z,100.00
2022-11-04T15:13:50.355Z,100.00
2022-11-04T15:16:21.288Z,100.00
2022-11-04T15:18:47.749Z,100.00
2022-11-04T15:21:14.413Z,100.00
2022-11-04T15:23:44.831Z,100.00
2022-11-04T15:26:30.402Z,100.00
2022-11-04T15:29:00.990Z,100.00
2022-11-04T15:31:32.166Z,100.00
2022-11-04T15:34:03.674Z,100.00
2022-11-04T15:36:34.287Z,100.00
2022-11-04T15:39:02.985Z,100.00
2022-11-04T15:41:51.282Z,100.00
2022-11-04T15:44:20.693Z,100.00
2022-11-04T15:46:49.605Z,100.00
2022-11-04T15:49:30.088Z,100.00
2022-11-04T15:52:01.070Z,100.00
2022-11-04T15:54:29.222Z,100.00
2022-11-04T15:56:58.485Z,100.00
2022-11-04T15:59:36.536Z,100.00
2022-11-04T16:02:05.271Z,100.00
2022-11-04T16:04:31.608Z,100.00
2022-11-04T16:07:09.193Z,100.00
2022-11-04T16:09:47.210Z,100.00
2022-11-04T16:12:13.853Z,100.00
2022-11-04T16:14:47.130Z,100.00
2022-11-04T16:17:13.005Z,100.00
2022-11-04T16:19:39.066Z,100.00
2022-11-04T16:22:08.569Z,100.00
2022-11-04T16:24:38.680Z,100.00
2022-11-04T16:27:10.037Z,100.00
2022-11-04T16:29:37.642Z,100.00
2022-11-04T16:32:16.334Z,100.00
2022-11-04T16:34:43.885Z,100.00
2022-11-04T16:37:10.209Z,100.00
2022-11-04T16:39:36.105Z,100.00
2022-11-04T16:42:02.628Z,100.00
2022-11-04T16:44:28.707Z,100.00
2022-11-04T16:46:56.420Z,100.00
2022-11-04T16:49:22.475Z,100.00
2022-11-04T16:51:54.036Z,100.00
2022-11-04T16:54:19.866Z,100.00
2022-11-04T16:56:45.794Z,100.00
2022-11-04T16:59:12.193Z,100.00
2022-11-04T17:01:39.218Z,100.00
2022-11-04T17:04:08.524Z,100.00
2022-11-04T17:06:34.764Z,100.00
2022-11-04T17:09:01.056Z,100.00
2022-11-04T17:11:29.599Z,100.00
2022-11-04T17:13:55.798Z,100.00
2022-11-04T17:16:21.672Z,100.00
2022-11-04T17:18:47.477Z,100.00
2022-11-04T17:21:16.338Z,100.00
2022-11-04T17:23:43.722Z,100.00
2022-11-04T17:26:11.648Z,100.00
2022-11-04T17:28:37.486Z,100.00
2022-11-04T17:31:03.541Z,100.00
2022-11-04T17:33:29.413Z,100.00
2022-11-04T17:35:56.113Z,100.00
2022-11-04T17:38:22.075Z,100.00
2022-11-04T17:41:06.945Z,100.00
2022-11-04T17:43:51.303Z,100.00
2022-11-04T17:46:40.987Z,100.00
2022-11-04T17:49:09.689Z,100.00
2022-11-04T17:51:36.089Z,100.00
2022-11-04T17:54:02.512Z,100.00
2022-11-04T17:56:28.479Z,100.00
2022-11-04T17:58:54.380Z,100.00
2022-11-04T18:01:22.250Z,100.00
2022-11-04T18:03:51.270Z,100.00
2022-11-04T18:06:17.069Z,100.00
2022-11-04T18:08:42.854Z,100.00
2022-11-04T18:11:10.235Z,100.00
2022-11-04T18:13:36.289Z,100.00
2022-11-04T18:16:12.511Z,100.00
2022-11-04T18:18:38.765Z,100.00
2022-11-04T18:21:07.144Z,100.00
2022-11-04T18:23:33.353Z,100.00
2022-11-04T18:25:59.616Z,100.00
2022-11-04T18:28:26.019Z,100.00
2022-11-04T18:30:51.934Z,100.00
2022-11-04T18:33:17.771Z,100.00
2022-11-04T18:35:43.605Z,100.00
2022-11-04T18:38:09.457Z,100.00
2022-11-04T18:40:35.493Z,100.00
2022-11-04T18:43:07.561Z,100.00
2022-11-04T18:45:35.628Z,100.00
2022-11-04T18:48:01.425Z,100.00
2022-11-04T18:50:27.279Z,100.00
2022-11-04T18:52:54.972Z,100.00
2022-11-04T18:55:20.787Z,100.00
2022-11-04T18:57:46.659Z,100.00
2022-11-04T19:00:16.865Z,100.00
2022-11-04T19:02:43.248Z,100.00
2022-11-04T19:05:09.381Z,100.00
2022-11-04T19:07:35.210Z,100.00
2022-11-04T19:10:01.058Z,100.00
2022-11-04T19:12:45.527Z,100.00
2022-11-04T19:15:11.469Z,100.00
2022-11-04T19:17:37.485Z,100.00
2022-11-04T19:20:11.386Z,100.00
2022-11-04T19:22:38.581Z,100.00
2022-11-04T19:25:04.787Z,100.00
2022-11-04T19:27:30.706Z,100.00
2022-11-04T19:29:56.531Z,100.00
2022-11-04T19:32:22.495Z,100.00
2022-11-04T19:34:48.985Z,100.00
2022-11-04T19:37:15.478Z,100.00
2022-11-04T19:39:41.473Z,100.00
2022-11-04T19:42:27.890Z,100.00
2022-11-04T19:44:53.731Z,100.00
2022-11-04T19:47:19.566Z,100.00
2022-11-04T19:49:45.544Z,100.00
2022-11-04T19:52:11.815Z,100.00
2022-11-04T19:54:37.594Z,100.00
2022-11-04T19:57:04.133Z,100.00
2022-11-04T19:59:29.940Z,100.00
2022-11-04T20:01:55.880Z,100.00
2022-11-04T20:04:21.773Z,100.00
2022-11-04T20:06:47.633Z,100.00
2022-11-04T20:09:13.951Z,100.00
2022-11-04T20:11:59.444Z,100.00
2022-11-04T20:14:27.009Z,100.00
2022-11-04T20:16:52.976Z,100.00
2022-11-04T20:19:22.694Z,100.00
2022-11-04T20:21:50.218Z,100.00
2022-11-04T20:24:16.353Z,100.00
2022-11-04T20:26:46.191Z,100.00
2022-11-04T20:29:12.465Z,100.00
2022-11-04T20:31:38.922Z,100.00
2022-11-04T20:34:07.562Z,100.00
2022-11-04T20:36:34.412Z,100.00
2022-11-04T20:39:05.588Z,100.00
2022-11-04T20:41:32.319Z,100.00
2022-11-04T20:43:58.708Z,100.00
2022-11-04T20:46:28.198Z,100.00
2022-11-04T20:48:55.907Z,100.00
2022-11-04T20:51:27.925Z,100.00
2022-11-04T20:53:59.500Z,100.00
2022-11-04T20:56:27.845Z,100.00
2022-11-04T20:58:59.081Z,100.00
2022-11-04T21:01:45.934Z,100.00
2022-11-04T21:04:14.921Z,100.00
2022-11-04T21:06:41.690Z,100.00
2022-11-04T21:09:10.587Z,100.00
2022-11-04T21:11:38.284Z,100.00
2022-11-04T21:14:05.899Z,100.00
2022-11-04T21:16:33.591Z,100.00
2022-11-04T21:18:59.958Z,100.00
2022-11-04T21:21:32.568Z,100.00
2022-11-04T21:24:00.690Z,100.00
2022-11-04T21:26:29.336Z,100.00
2022-11-04T21:29:02.892Z,100.00
2022-11-04T21:31:31.097Z,100.00
2022-11-04T21:33:57.283Z,100.00
2022-11-04T21:36:23.105Z,100.00
2022-11-04T21:38:49.396Z,100.00
2022-11-04T21:41:18.996Z,100.00
2022-11-04T21:43:44.867Z,100.00
2022-11-04T21:46:13.075Z,100.00
2022-11-04T21:48:39.834Z,100.00
2022-11-04T21:51:09.467Z,100.00
2022-11-04T21:53:35.258Z,100.00
2022-11-04T21:56:08.696Z,100.00
2022-11-04T21:58:38.018Z,100.00
2022-11-04T22:01:08.897Z,100.00
2022-11-04T22:03:34.840Z,100.00
2022-11-04T22:06:06.382Z,100.00
2022-11-04T22:08:32.952Z,100.00
2022-11-04T22:11:08.826Z,100.00
2022-11-04T22:13:35.271Z,100.00
2022-11-04T22:16:08.768Z,100.00
2022-11-04T22:18:34.844Z,100.00
2022-11-04T22:21:04.226Z,100.00
2022-11-04T22:23:30.127Z,100.00
2022-11-04T22:26:00.545Z,100.00
2022-11-04T22:28:26.662Z,100.00
2022-11-04T22:30:52.944Z,100.00
2022-11-04T22:33:18.816Z,100.00
2022-11-04T22:35:45.779Z,100.00
2022-11-04T22:38:12.220Z,100.00
2022-11-04T22:40:38.783Z,100.00
2022-11-04T22:43:04.596Z,100.00
2022-11-04T22:45:30.562Z,100.00
2022-11-04T22:47:56.471Z,100.00
2022-11-04T22:50:22.469Z,100.00
2022-11-04T22:52:48.515Z,100.00
2022-11-04T22:55:14.732Z,100.00
2022-11-04T22:57:40.770Z,100.00
2022-11-04T23:00:07.550Z,100.00
2022-11-04T23:02:36.789Z,100.00
2022-11-04T23:05:03.481Z,100.00
2022-11-04T23:07:29.381Z,100.00
2022-11-04T23:10:13.652Z,100.00
2022-11-04T23:12:58.184Z,100.00
2022-11-04T23:15:42.533Z,100.00
2022-11-04T23:18:29.506Z,100.00
2022-11-04T23:21:13.961Z,100.00
2022-11-04T23:23:58.492Z,100.00
2022-11-04T23:26:27.647Z,100.00
2022-11-04T23:29:12.097Z,100.00
2022-11-04T23:31:37.912Z,100.00
2022-11-04T23:34:22.170Z,100.00
2022-11-04T23:37:06.786Z,100.00
2022-11-04T23:39:32.773Z,100.00
2022-11-04T23:42:16.889Z,100.00
2022-11-04T23:45:13.332Z,100.00
2022-11-04T23:48:02.482Z,100.00
2022-11-04T23:50:50.518Z,100.00
2022-11-04T23:53:36.676Z,100.00
2022-11-04T23:56:22.127Z,100.00
2022-11-04T23:59:06.388Z,100.00
